Time;durP1;ratioP1;P1;durP2;ratioP2;P2;SDS_P1;SDS_P2;PMS_P1;PMS_P2;Temp;Humidity;BMP_temperature;BMP_pressure;BME280_temperature;BME280_humidity;BME280_pressure;Samples;Min_cycle;Max_cycle;Signal;HPM_P1;HPM_P2
2022/03/19 00:01:52;;;;;;;17.23;4.30;;;9.80;75.40;;;;;;5033446;28;20062;-75
2022/03/19 00:04:17;;;;;;;14.70;4.50;;;9.70;76.30;;;;;;5032747;28;20081;-75
2022/03/19 00:06:46;;;;;;;13.70;4.17;;;9.70;75.90;;;;;;5033070;28;20427;-75
2022/03/19 00:09:12;;;;;;;16.67;4.20;;;9.80;75.90;;;;;;5032967;28;20505;-75
2022/03/19 00:11:39;;;;;;;12.40;3.43;;;9.70;76.00;;;;;;5034265;28;20022;-75
2022/03/19 00:14:04;;;;;;;10.83;3.63;;;9.70;76.80;;;;;;5032819;28;20359;-76
2022/03/19 00:16:30;;;;;;;14.07;4.07;;;9.70;77.30;;;;;;5016458;28;20028;-76
2022/03/19 00:18:56;;;;;;;14.47;4.43;;;9.70;77.30;;;;;;5033369;28;20499;-76
2022/03/19 00:21:21;;;;;;;10.93;4.80;;;9.60;78.10;;;;;;5032770;28;20032;-76
2022/03/19 00:23:47;;;;;;;14.83;3.77;;;9.60;77.50;;;;;;5037431;28;20470;-76
2022/03/19 00:26:14;;;;;;;12.40;3.57;;;9.60;77.70;;;;;;5042156;28;20033;-76
2022/03/19 00:28:41;;;;;;;10.97;3.87;;;9.50;77.60;;;;;;5032445;28;20045;-76
2022/03/19 00:31:09;;;;;;;14.97;3.50;;;9.50;77.60;;;;;;5049126;28;20032;-76
2022/03/19 00:33:35;;;;;;;13.47;3.50;;;9.50;78.50;;;;;;5034030;28;20061;-76
2022/03/19 00:36:01;;;;;;;9.23;3.00;;;9.50;78.40;;;;;;5033623;28;20060;-76
2022/03/19 00:38:26;;;;;;;13.73;3.93;;;9.50;78.50;;;;;;5033711;28;20424;-76
2022/03/19 00:40:52;;;;;;;15.73;3.80;;;9.40;78.70;;;;;;5032563;28;20066;-76
2022/03/19 00:43:21;;;;;;;16.67;4.67;;;9.40;78.80;;;;;;5049059;28;20492;-76
2022/03/19 00:45:47;;;;;;;12.93;2.97;;;9.40;78.90;;;;;;5033647;28;20032;-76
2022/03/19 00:48:14;;;;;;;13.37;3.80;;;9.30;79.30;;;;;;5048913;28;20060;-75
2022/03/19 00:50:40;;;;;;;17.03;4.47;;;9.40;79.40;;;;;;5032256;28;20428;-76
2022/03/19 00:53:05;;;;;;;16.07;4.07;;;9.30;80.00;;;;;;5048816;28;20112;-76
2022/03/19 00:55:31;;;;;;;12.90;4.03;;;9.30;80.30;;;;;;5033442;28;20026;-76
2022/03/19 00:57:57;;;;;;;15.07;4.13;;;9.30;80.20;;;;;;5032592;28;20076;-76
2022/03/19 01:00:29;;;;;;;20.07;4.10;;;9.30;80.50;;;;;;5033453;28;20033;-76
2022/03/19 01:02:55;;;;;;;16.17;5.33;;;9.30;80.40;;;;;;5033483;28;20038;-76
2022/03/19 01:05:22;;;;;;;16.10;3.20;;;9.30;81.10;;;;;;5033370;28;20393;-76
2022/03/19 01:07:53;;;;;;;12.73;3.93;;;9.20;81.60;;;;;;5048605;28;20095;-76
2022/03/19 01:10:28;;;;;;;19.53;4.10;;;9.20;81.50;;;;;;5032390;28;20029;-76
2022/03/19 01:12:55;;;;;;;15.33;3.70;;;9.10;81.30;;;;;;5033309;28;20018;-76
2022/03/19 01:15:21;;;;;;;11.90;3.90;;;9.20;81.50;;;;;;5015464;28;20017;-76
2022/03/19 01:17:47;;;;;;;14.93;4.30;;;9.20;81.70;;;;;;5048456;28;20440;-76
2022/03/19 01:20:14;;;;;;;15.17;4.57;;;9.20;81.80;;;;;;5051492;28;20036;-76
2022/03/19 01:22:42;;;;;;;14.17;4.63;;;9.10;82.30;;;;;;5052681;28;20025;-76
2022/03/19 01:25:08;;;;;;;13.63;5.00;;;9.20;83.20;;;;;;5037072;28;20026;-76
2022/03/19 01:27:35;;;;;;;19.33;4.70;;;9.10;83.20;;;;;;5052464;28;20022;-76
2022/03/19 01:30:03;;;;;;;14.23;4.60;;;9.10;83.10;;;;;;5037058;28;20036;-76
2022/03/19 01:32:29;;;;;;;15.20;4.77;;;9.00;83.00;;;;;;5036928;28;20025;-76
2022/03/19 01:34:55;;;;;;;11.97;4.40;;;9.00;83.40;;;;;;5035968;28;20043;-76
2022/03/19 01:37:22;;;;;;;14.90;4.83;;;9.10;83.60;;;;;;5037014;28;20080;-76
2022/03/19 01:39:48;;;;;;;16.33;4.40;;;9.00;83.90;;;;;;5036960;28;20040;-76
2022/03/19 01:42:28;;;;;;;15.43;5.20;;;9.00;84.60;;;;;;5036854;28;20022;-76
2022/03/19 01:44:55;;;;;;;13.63;4.40;;;8.90;83.70;;;;;;5035842;28;20030;-75
2022/03/19 01:47:21;;;;;;;18.40;5.37;;;8.90;83.90;;;;;;5035870;28;20029;-75
2022/03/19 01:49:47;;;;;;;12.90;4.87;;;8.90;84.10;;;;;;5036795;28;20025;-76
2022/03/19 01:52:13;;;;;;;17.77;5.97;;;8.80;84.00;;;;;;5035657;28;20025;-75
2022/03/19 01:54:42;;;;;;;20.23;5.83;;;8.90;84.20;;;;;;5035412;28;20116;-76
2022/03/19 01:57:09;;;;;;;15.60;5.57;;;8.90;85.10;;;;;;5036809;28;20022;-75
2022/03/19 01:59:37;;;;;;;18.80;5.90;;;8.90;84.50;;;;;;5052077;28;20029;-76
2022/03/19 02:02:04;;;;;;;12.23;5.63;;;8.80;84.80;;;;;;5037116;28;20467;-76
2022/03/19 02:04:30;;;;;;;14.77;5.80;;;8.80;84.70;;;;;;5036431;28;20042;-76
2022/03/19 02:06:56;;;;;;;23.23;8.10;;;8.80;85.10;;;;;;5036491;28;20095;-76
2022/03/19 02:09:22;;;;;;;18.07;7.07;;;8.80;86.30;;;;;;5036799;28;20030;-76
2022/03/19 02:11:48;;;;;;;17.73;7.60;;;8.80;85.90;;;;;;5035593;28;20037;-76
2022/03/19 02:14:15;;;;;;;19.27;6.73;;;8.70;85.70;;;;;;5034118;28;20029;-76
2022/03/19 02:16:42;;;;;;;14.70;6.67;;;8.70;85.90;;;;;;5036152;28;20025;-77
2022/03/19 02:19:07;;;;;;;16.83;6.83;;;8.80;86.10;;;;;;5034842;28;20549;-77
2022/03/19 02:21:45;;;;;;;15.37;7.10;;;8.70;86.30;;;;;;5035022;28;20053;-77
2022/03/19 02:26:55;;;;;;;17.20;7.07;;;8.80;87.40;;;;;;5036399;28;20045;-77
2022/03/19 02:29:22;;;;;;;15.37;6.37;;;8.70;87.10;;;;;;5034769;28;20029;-77
2022/03/19 02:31:57;;;;;;;13.70;6.60;;;8.70;87.20;;;;;;5034697;28;20029;-77
2022/03/19 02:34:23;;;;;;;12.40;5.60;;;8.70;86.80;;;;;;5036025;28;20032;-77
2022/03/19 02:36:49;;;;;;;14.10;5.90;;;8.70;87.40;;;;;;5018135;28;20116;-77
2022/03/19 02:39:18;;;;;;;16.30;6.40;;;8.60;87.30;;;;;;5034902;28;20109;-77
2022/03/19 02:41:46;;;;;;;18.33;7.90;;;8.60;87.00;;;;;;5035907;28;20070;-77
2022/03/19 02:44:13;;;;;;;15.50;5.80;;;8.60;86.90;;;;;;5036155;28;20159;-77
2022/03/19 02:46:41;;;;;;;15.13;6.00;;;8.60;86.80;;;;;;5035749;28;20041;-77
2022/03/19 02:49:07;;;;;;;24.17;7.83;;;8.60;86.80;;;;;;5034979;28;20022;-77
2022/03/19 02:51:38;;;;;;;14.60;6.60;;;8.50;87.70;;;;;;5034406;28;20040;-78
2022/03/19 02:54:09;;;;;;;19.37;6.90;;;8.50;88.00;;;;;;5035558;28;20030;-78
2022/03/19 02:56:37;;;;;;;22.40;7.20;;;8.50;88.30;;;;;;5035522;28;20025;-78
2022/03/19 02:59:13;;;;;;;14.93;5.60;;;8.50;87.60;;;;;;5034214;28;20037;-79
2022/03/19 03:01:42;;;;;;;14.13;6.00;;;8.50;87.40;;;;;;5035387;28;20018;-78
2022/03/19 03:04:07;;;;;;;20.90;7.10;;;8.50;87.60;;;;;;5034112;28;20081;-78
2022/03/19 03:06:39;;;;;;;12.80;5.83;;;8.50;88.00;;;;;;5034133;28;20110;-80
2022/03/19 03:09:05;;;;;;;13.37;6.13;;;8.40;87.60;;;;;;5035341;28;20056;-78
2022/03/19 03:11:31;;;;;;;22.60;7.20;;;8.40;87.70;;;;;;5034013;28;20433;-78
2022/03/19 03:13:57;;;;;;;18.73;5.80;;;8.40;88.00;;;;;;5033872;28;20022;-78
2022/03/19 03:16:24;;;;;;;15.67;6.00;;;8.50;88.80;;;;;;5035362;28;20025;-78
2022/03/19 03:18:50;;;;;;;16.60;6.17;;;8.40;88.10;;;;;;5034005;28;20386;-78
2022/03/19 03:21:16;;;;;;;17.80;6.97;;;8.40;88.10;;;;;;5035274;28;20056;-78
2022/03/19 03:23:41;;;;;;;15.17;5.43;;;8.30;88.30;;;;;;5035097;28;20026;-78
2022/03/19 03:26:07;;;;;;;19.07;6.50;;;8.40;88.10;;;;;;5034992;28;20486;-78
2022/03/19 03:28:33;;;;;;;15.23;5.73;;;8.30;88.70;;;;;;5034075;28;20106;-78
2022/03/19 03:30:58;;;;;;;15.63;6.20;;;8.30;88.70;;;;;;5017217;28;20355;-78
2022/03/19 03:33:24;;;;;;;16.97;6.20;;;8.30;88.40;;;;;;5034875;28;20030;-78
2022/03/19 03:35:50;;;;;;;18.70;6.37;;;8.30;88.40;;;;;;5017072;28;20057;-79
2022/03/19 03:38:15;;;;;;;16.17;5.70;;;8.20;88.50;;;;;;5033661;28;20037;-79
2022/03/19 03:40:41;;;;;;;18.57;5.73;;;8.20;88.30;;;;;;5033486;28;20029;-79
2022/03/19 03:43:08;;;;;;;16.70;6.37;;;8.30;88.50;;;;;;5032821;28;20108;-79
2022/03/19 03:45:34;;;;;;;15.47;5.27;;;8.20;88.20;;;;;;5033245;28;20032;-78
2022/03/19 03:48:01;;;;;;;14.30;5.07;;;8.10;88.20;;;;;;5033412;28;20025;-78
2022/03/19 03:50:27;;;;;;;12.40;5.13;;;8.10;88.20;;;;;;5034536;28;20026;-78
2022/03/19 03:52:53;;;;;;;14.77;5.57;;;8.20;88.20;;;;;;5034377;28;20032;-78
2022/03/19 03:55:19;;;;;;;16.17;6.50;;;8.00;88.20;;;;;;5033242;28;20030;-78
2022/03/19 03:57:45;;;;;;;15.97;6.30;;;8.10;88.70;;;;;;5033133;28;20486;-79
2022/03/19 04:00:11;;;;;;;19.50;6.57;;;8.00;88.80;;;;;;5033129;28;20072;-78
2022/03/19 04:02:37;;;;;;;20.10;6.40;;;8.00;88.70;;;;;;5016264;28;20025;-78
2022/03/19 04:05:04;;;;;;;13.40;5.17;;;8.10;88.80;;;;;;5036003;28;20070;-78
2022/03/19 04:07:30;;;;;;;17.77;6.60;;;8.00;88.90;;;;;;5034284;28;20506;-77
2022/03/19 04:09:56;;;;;;;15.17;6.30;;;7.90;89.00;;;;;;5034114;28;20033;-77
2022/03/19 04:12:22;;;;;;;13.00;6.00;;;8.00;89.40;;;;;;5034050;28;20109;-78
2022/03/19 04:14:49;;;;;;;16.07;6.80;;;7.90;89.00;;;;;;5033928;28;20033;-77
2022/03/19 04:17:15;;;;;;;15.83;6.07;;;7.90;89.00;;;;;;5032698;28;20389;-77
2022/03/19 04:19:40;;;;;;;20.37;6.77;;;7.90;89.70;;;;;;5032757;28;20022;-78
2022/03/19 04:22:06;;;;;;;16.40;7.20;;;7.90;89.80;;;;;;5032592;28;20222;-78
2022/03/19 04:24:32;;;;;;;16.47;6.17;;;7.90;90.00;;;;;;5042498;28;20040;-78
2022/03/19 04:26:57;;;;;;;17.47;6.90;;;7.90;89.60;;;;;;5035926;28;20025;-78
2022/03/19 04:29:23;;;;;;;17.30;7.13;;;7.90;89.80;;;;;;5052263;28;20029;-78
2022/03/19 04:31:49;;;;;;;19.87;7.40;;;7.80;89.60;;;;;;5052611;28;20098;-78
2022/03/19 04:34:14;;;;;;;16.30;7.90;;;7.80;89.90;;;;;;5053749;28;20477;-77
2022/03/19 04:36:41;;;;;;;16.87;7.30;;;7.80;90.00;;;;;;5052462;28;20489;-77
2022/03/19 04:39:07;;;;;;;17.00;7.30;;;7.80;90.00;;;;;;5053716;28;20056;-78
2022/03/19 04:41:35;;;;;;;19.47;8.07;;;7.80;90.10;;;;;;5053475;28;20021;-77
2022/03/19 04:44:01;;;;;;;19.90;7.67;;;7.80;90.10;;;;;;5052537;28;20036;-78
2022/03/19 04:46:27;;;;;;;17.43;6.73;;;7.70;90.00;;;;;;5053495;28;20028;-77
2022/03/19 04:48:53;;;;;;;19.40;7.67;;;7.70;90.10;;;;;;5053503;28;20025;-77
2022/03/19 04:51:21;;;;;;;16.23;7.57;;;7.70;90.20;;;;;;5053445;28;20032;-77
2022/03/19 04:53:50;;;;;;;16.80;7.53;;;7.70;90.10;;;;;;5051252;28;20029;-78
2022/03/19 04:56:23;;;;;;;13.60;6.73;;;7.70;90.40;;;;;;5052624;28;20037;-75
2022/03/19 04:58:50;;;;;;;17.63;7.43;;;7.70;90.50;;;;;;5053711;28;20060;-75
2022/03/19 05:01:16;;;;;;;17.30;7.20;;;7.60;90.60;;;;;;5053242;28;20063;-73
2022/03/19 05:03:42;;;;;;;22.77;9.20;;;7.60;90.80;;;;;;5051846;28;20052;-75
2022/03/19 05:06:08;;;;;;;20.07;8.03;;;7.60;91.00;;;;;;5053555;28;20055;-74
2022/03/19 05:08:34;;;;;;;18.20;8.17;;;7.60;90.60;;;;;;5050933;28;20040;-75
2022/03/19 05:11:16;;;;;;;19.37;8.63;;;7.60;90.60;;;;;;5032472;28;20159;-74
2022/03/19 05:13:48;;;;;;;19.90;7.27;;;7.50;90.90;;;;;;5032383;28;20501;-75
2022/03/19 05:16:14;;;;;;;15.97;7.37;;;7.60;90.80;;;;;;5031936;28;20021;-73
2022/03/19 05:18:40;;;;;;;16.67;6.97;;;7.60;90.90;;;;;;5031483;28;20466;-75
2022/03/19 05:21:06;;;;;;;19.93;8.03;;;7.60;91.10;;;;;;5031908;28;20037;-74
2022/03/19 05:23:32;;;;;;;14.07;6.37;;;7.50;90.90;;;;;;5031610;28;20451;-74
2022/03/19 05:25:58;;;;;;;17.97;6.93;;;7.50;90.90;;;;;;5033271;28;20040;-75
2022/03/19 05:28:24;;;;;;;23.77;8.07;;;7.50;91.00;;;;;;5033295;28;20037;-76
2022/03/19 05:30:51;;;;;;;22.17;7.93;;;7.50;91.40;;;;;;5015740;28;20037;-75
2022/03/19 05:33:17;;;;;;;13.70;7.27;;;7.50;91.30;;;;;;5032170;28;20124;-74
2022/03/19 05:35:44;;;;;;;17.20;7.07;;;7.40;91.20;;;;;;5032201;28;20041;-75
2022/03/19 05:38:11;;;;;;;16.13;7.20;;;7.50;91.10;;;;;;5032031;28;20437;-74
2022/03/19 05:40:36;;;;;;;16.30;6.87;;;7.40;91.10;;;;;;5033537;28;20033;-74
2022/03/19 05:43:02;;;;;;;14.90;6.77;;;7.40;91.20;;;;;;5033183;28;20075;-75
2022/03/19 05:45:28;;;;;;;17.27;6.60;;;7.40;91.10;;;;;;5033559;28;20075;-75
2022/03/19 05:47:53;;;;;;;19.47;8.23;;;7.40;91.20;;;;;;5032274;28;20087;-74
2022/03/19 05:50:19;;;;;;;16.60;6.37;;;7.30;91.30;;;;;;5032200;28;20061;-75
2022/03/19 05:52:45;;;;;;;18.23;7.43;;;7.30;91.30;;;;;;4998997;28;20032;-74
2022/03/19 05:55:11;;;;;;;14.63;5.93;;;7.30;91.40;;;;;;5041580;28;20116;-75
2022/03/19 05:57:38;;;;;;;20.17;6.33;;;7.30;91.50;;;;;;5047103;28;20029;-79
2022/03/19 06:00:06;;;;;;;15.37;7.13;;;7.30;91.40;;;;;;5052713;28;20167;-80
2022/03/19 06:02:32;;;;;;;15.70;6.23;;;7.30;91.30;;;;;;5051564;28;20230;-79
2022/03/19 06:04:58;;;;;;;11.90;5.30;;;7.20;91.30;;;;;;5053632;28;20183;-80
2022/03/19 06:07:23;;;;;;;19.83;5.67;;;7.30;91.30;;;;;;5056495;28;20033;-80
2022/03/19 06:09:49;;;;;;;16.27;6.10;;;7.30;91.30;;;;;;5055238;28;20041;-79
2022/03/19 06:12:14;;;;;;;16.87;6.00;;;7.30;91.30;;;;;;5055179;28;20539;-79
2022/03/19 06:14:40;;;;;;;15.00;5.80;;;7.30;91.20;;;;;;5038696;28;20409;-79
2022/03/19 06:17:06;;;;;;;15.67;5.70;;;7.30;91.10;;;;;;5055212;28;20068;-80
2022/03/19 06:19:31;;;;;;;14.77;5.33;;;7.30;91.10;;;;;;5056268;28;20037;-80
2022/03/19 06:21:57;;;;;;;15.73;5.07;;;7.30;91.00;;;;;;5056340;28;20029;-77
2022/03/19 06:24:23;;;;;;;14.20;5.93;;;7.30;90.90;;;;;;5054954;28;20036;-80
2022/03/19 06:26:50;;;;;;;16.00;5.97;;;7.40;90.80;;;;;;5038380;28;20044;-76
2022/03/19 06:29:16;;;;;;;9.33;4.40;;;7.30;90.70;;;;;;5056090;28;20119;-79
2022/03/19 06:31:42;;;;;;;14.07;4.83;;;7.40;90.70;;;;;;5038183;28;20116;-79
2022/03/19 06:34:08;;;;;;;13.87;5.30;;;7.40;90.60;;;;;;5055130;28;20037;-80
2022/03/19 06:39:18;;;;;;;12.40;5.10;;;7.40;90.50;;;;;;5054932;28;20040;-80
2022/03/19 06:41:44;;;;;;;17.07;4.80;;;7.40;90.40;;;;;;5038352;28;20033;-80
2022/03/19 06:44:09;;;;;;;17.13;5.47;;;7.40;90.40;;;;;;5054649;28;20079;-78
2022/03/19 06:46:35;;;;;;;18.70;5.67;;;7.40;90.30;;;;;;5054505;28;20184;-79
2022/03/19 06:49:01;;;;;;;17.33;5.17;;;7.50;90.30;;;;;;5055617;28;20032;-79
2022/03/19 06:51:26;;;;;;;17.40;5.07;;;7.50;90.20;;;;;;5037734;28;20036;-79
2022/03/19 06:53:52;;;;;;;10.47;4.70;;;7.50;90.10;;;;;;5038018;28;20370;-79
2022/03/19 06:56:18;;;;;;;13.53;5.33;;;7.50;90.00;;;;;;5041743;28;20492;-79
2022/03/19 06:58:44;;;;;;;12.90;4.50;;;7.60;90.00;;;;;;5046342;28;20021;-79
2022/03/19 07:01:14;;;;;;;15.43;5.10;;;7.60;89.80;;;;;;5042267;28;20083;-79
2022/03/19 07:03:44;;;;;;;15.00;4.93;;;7.60;89.60;;;;;;5044689;28;20041;-79
2022/03/19 07:06:11;;;;;;;14.37;5.03;;;7.60;89.40;;;;;;5042982;28;20033;-79
2022/03/19 07:08:36;;;;;;;12.67;3.83;;;7.60;89.10;;;;;;5043001;28;20040;-79
2022/03/19 07:11:02;;;;;;;11.13;4.77;;;7.60;89.00;;;;;;5040592;28;20033;-79
2022/03/19 07:13:28;;;;;;;13.23;4.43;;;7.60;88.70;;;;;;5043598;28;20021;-79
2022/03/19 07:15:54;;;;;;;8.57;3.37;;;7.80;88.60;;;;;;5034017;28;20091;-80
2022/03/19 07:18:19;;;;;;;12.50;4.30;;;7.70;88.30;;;;;;5041965;28;20390;-79
2022/03/19 07:20:45;;;;;;;15.87;4.90;;;7.70;88.20;;;;;;5034548;28;20029;-79
2022/03/19 07:23:11;;;;;;;13.20;4.57;;;7.70;88.10;;;;;;5038462;28;20482;-79
2022/03/19 07:25:39;;;;;;;11.20;3.63;;;7.80;88.00;;;;;;5047073;28;20619;-79
2022/03/19 07:28:07;;;;;;;14.40;4.20;;;7.80;87.80;;;;;;5046893;28;20044;-79
2022/03/19 07:30:33;;;;;;;11.10;3.40;;;7.80;87.50;;;;;;5040582;28;20041;-79
2022/03/19 07:32:59;;;;;;;14.23;4.00;;;7.80;87.20;;;;;;5038557;28;20033;-80
2022/03/19 07:35:25;;;;;;;11.80;5.00;;;7.80;86.90;;;;;;5034660;28;20096;-78
2022/03/19 07:37:51;;;;;;;11.83;4.57;;;7.90;86.80;;;;;;5017137;28;20413;-78
2022/03/19 07:43:05;;;;;;;11.87;4.20;;;7.90;86.60;;;;;;5034298;28;20036;-80
2022/03/19 07:45:31;;;;;;;10.63;3.93;;;7.90;86.50;;;;;;5033265;28;20032;-78
2022/03/19 07:47:57;;;;;;;17.00;4.73;;;8.00;86.50;;;;;;5016977;28;20025;-78
2022/03/19 07:50:22;;;;;;;12.90;4.17;;;7.90;86.40;;;;;;5034430;28;20033;-79
2022/03/19 07:52:48;;;;;;;13.43;5.03;;;8.00;86.40;;;;;;5016869;28;20080;-79
2022/03/19 07:55:14;;;;;;;17.10;4.93;;;8.00;86.60;;;;;;5034408;28;20041;-79
2022/03/19 07:57:40;;;;;;;15.70;5.27;;;8.00;86.50;;;;;;5036949;28;20021;-78
2022/03/19 08:00:06;;;;;;;10.40;4.50;;;8.00;86.50;;;;;;5033698;28;20025;-80
2022/03/19 08:02:32;;;;;;;13.67;5.00;;;8.00;86.50;;;;;;5037113;28;20084;-79
2022/03/19 08:05:00;;;;;;;17.90;6.00;;;8.00;86.50;;;;;;5033680;28;20053;-78
2022/03/19 08:07:25;;;;;;;10.80;4.30;;;8.10;86.60;;;;;;5038674;28;20044;-79
2022/03/19 08:09:51;;;;;;;14.83;5.30;;;8.20;86.70;;;;;;5050950;28;20032;-80
2022/03/19 08:12:17;;;;;;;10.57;4.33;;;8.10;86.50;;;;;;5047618;28;20052;-80
2022/03/19 08:14:42;;;;;;;11.23;4.40;;;8.20;86.50;;;;;;5023095;28;20026;-78
2022/03/19 08:17:08;;;;;;;12.73;4.13;;;8.20;86.50;;;;;;5033822;28;20051;-77
2022/03/19 08:19:34;;;;;;;14.80;4.73;;;8.30;86.60;;;;;;5034301;28;20030;-78
2022/03/19 08:21:59;;;;;;;13.60;4.63;;;8.40;86.30;;;;;;5034397;28;20026;-74
2022/03/19 08:24:25;;;;;;;10.60;4.80;;;8.40;86.70;;;;;;5032684;28;20115;-76
2022/03/19 08:26:54;;;;;;;12.67;4.37;;;8.40;85.90;;;;;;5034315;28;20367;-74
2022/03/19 08:29:24;;;;;;;12.70;5.00;;;8.50;85.70;;;;;;5032637;28;20036;-75
2022/03/19 08:31:53;;;;;;;13.37;4.80;;;8.60;85.50;;;;;;5033103;28;20033;-75
2022/03/19 08:34:19;;;;;;;12.50;4.20;;;8.60;85.20;;;;;;5034248;28;20127;-75
2022/03/19 08:36:45;;;;;;;10.73;3.90;;;8.70;84.90;;;;;;5045267;28;20116;-75
2022/03/19 08:41:55;;;;;;;;;;;8.80;84.10;;;;;;5033850;28;20385;-75
2022/03/19 08:44:21;;;;;;;12.17;3.70;;;8.90;83.70;;;;;;5033952;28;19905;-74
2022/03/19 08:46:47;;;;;;;10.17;4.23;;;9.00;83.60;;;;;;5015955;28;20083;-77
2022/03/19 08:49:12;;;;;;;13.83;3.97;;;9.00;83.10;;;;;;5048883;28;20032;-76
2022/03/19 08:51:41;;;;;;;15.63;4.83;;;9.10;82.80;;;;;;5031895;28;20065;-75
2022/03/19 08:54:08;;;;;;;7.80;3.07;;;9.10;82.60;;;;;;5033186;28;20033;-76
2022/03/19 08:56:36;;;;;;;11.03;4.00;;;9.20;82.00;;;;;;5044694;28;20025;-74
2022/03/19 08:59:03;;;;;;;13.63;3.60;;;9.30;81.60;;;;;;5052169;28;20098;-76
2022/03/19 09:01:28;;;;;;;10.00;2.93;;;9.30;81.30;;;;;;5051854;28;20465;-75
2022/03/19 09:03:54;;;;;;;11.10;3.53;;;9.40;81.30;;;;;;5051700;28;20051;-75
2022/03/19 09:06:20;;;;;;;17.57;4.27;;;9.50;80.80;;;;;;5019018;28;20064;-75
2022/03/19 09:08:47;;;;;;;13.37;3.70;;;9.60;80.30;;;;;;5052055;28;20029;-76
2022/03/19 09:11:13;;;;;;;13.13;3.23;;;9.60;79.70;;;;;;5027768;28;20061;-75
2022/03/19 09:13:39;;;;;;;10.60;2.83;;;9.80;79.00;;;;;;5038803;28;20500;-75
2022/03/19 09:16:07;;;;;;;11.80;3.63;;;9.90;78.40;;;;;;5042851;28;20029;-74
2022/03/19 09:18:33;;;;;;;7.37;2.70;;;9.90;78.10;;;;;;5049022;28;20338;-75
2022/03/19 09:20:58;;;;;;;10.27;2.87;;;10.00;77.70;;;;;;5041111;28;20366;-75
2022/03/19 09:23:24;;;;;;;10.27;2.60;;;10.10;77.30;;;;;;5016915;28;20022;-75
2022/03/19 09:25:50;;;;;;;12.13;3.00;;;10.20;76.00;;;;;;5051769;28;20021;-75
2022/03/19 09:28:16;;;;;;;9.67;3.17;;;10.20;74.60;;;;;;5035032;28;20044;-75
2022/03/19 09:30:42;;;;;;;10.37;3.53;;;10.30;74.50;;;;;;5035508;28;20170;-75
2022/03/19 09:33:07;;;;;;;8.07;2.47;;;10.40;74.50;;;;;;5035383;28;20389;-75
2022/03/19 09:35:34;;;;;;;9.20;2.30;;;10.50;73.60;;;;;;5035353;28;20029;-77
2022/03/19 09:38:00;;;;;;;11.13;2.50;;;10.50;71.60;;;;;;5049804;28;20060;-75
2022/03/19 09:40:25;;;;;;;9.00;2.43;;;10.60;71.20;;;;;;5016769;28;20466;-76
2022/03/19 09:42:53;;;;;;;8.63;2.17;;;10.60;70.40;;;;;;5019403;28;20033;-75
2022/03/19 09:45:20;;;;;;;7.70;2.30;;;10.70;70.50;;;;;;5061501;28;20464;-75
2022/03/19 09:47:46;;;;;;;5.27;1.77;;;10.80;69.70;;;;;;5075741;28;20037;-70
2022/03/19 09:50:12;;;;;;;6.20;1.60;;;10.80;69.30;;;;;;5075886;28;20050;-70
2022/03/19 09:52:41;;;;;;;7.70;2.30;;;11.00;69.70;;;;;;5077374;28;20437;-71
2022/03/19 09:55:08;;;;;;;6.60;1.40;;;11.00;68.50;;;;;;5076871;28;20471;-72
2022/03/19 09:57:34;;;;;;;8.73;2.08;;;11.10;67.80;;;;;;5043763;28;20143;-73
2022/03/19 10:00:00;;;;;;;9.13;1.13;;;11.20;66.80;;;;;;5018964;28;20048;-70
2022/03/19 10:02:26;;;;;;;4.78;1.42;;;11.30;66.10;;;;;;5036549;28;20044;-73
2022/03/19 10:04:57;;;;;;;9.80;1.83;;;11.40;64.60;;;;;;5035471;28;20487;-72
2022/03/19 10:10:09;;;;;;;5.33;1.50;;;11.80;63.00;;;;;;5036644;28;20040;-71
2022/03/19 10:12:36;;;;;;;11.52;2.05;;;12.10;62.80;;;;;;5035569;28;20104;-72
2022/03/19 10:15:09;;;;;;;7.95;2.05;;;12.50;62.50;;;;;;5035333;28;20033;-73
2022/03/19 10:17:36;;;;;;;6.97;1.50;;;12.90;61.90;;;;;;5051771;28;20083;-71
2022/03/19 10:20:20;;;;;;;8.15;1.77;;;13.40;61.20;;;;;;5036254;28;20049;-73
2022/03/19 10:22:46;;;;;;;3.95;1.38;;;14.00;59.80;;;;;;5035019;28;20029;-78
2022/03/19 10:25:13;;;;;;;5.07;1.00;;;14.70;58.70;;;;;;5051698;28;20363;-78
2022/03/19 10:27:41;;;;;;;7.32;1.75;;;15.50;59.00;;;;;;5036298;28;20029;-77
2022/03/19 10:30:13;;;;;;;4.32;1.15;;;16.40;56.00;;;;;;5044507;28;20478;-78
2022/03/19 10:32:40;;;;;;;4.45;1.00;;;17.20;56.60;;;;;;5035149;28;20048;-78
2022/03/19 10:35:22;;;;;;;6.15;1.40;;;17.90;54.30;;;;;;5055718;28;20060;-79
2022/03/19 10:37:47;;;;;;;4.70;1.27;;;18.80;53.80;;;;;;5056589;28;20490;-79
2022/03/19 10:40:13;;;;;;;3.42;0.80;;;19.60;51.40;;;;;;5055822;28;20021;-79
2022/03/19 10:42:41;;;;;;;5.03;1.00;;;20.10;49.10;;;;;;5054875;28;20061;-78
2022/03/19 10:45:28;;;;;;;8.77;0.80;;;20.60;47.00;;;;;;5054929;28;20033;-79
2022/03/19 10:47:53;;;;;;;3.15;0.90;;;21.10;45.60;;;;;;5054351;28;20049;-79
2022/03/19 10:50:24;;;;;;;4.45;0.82;;;21.60;46.00;;;;;;5055916;28;20049;-79
2022/03/19 10:52:52;;;;;;;4.03;0.98;;;22.00;44.30;;;;;;5054520;28;20033;-80
2022/03/19 10:55:18;;;;;;;5.75;1.20;;;22.40;43.90;;;;;;5066651;28;20473;-80
2022/03/19 10:57:46;;;;;;;5.63;0.82;;;22.70;43.20;;;;;;5057604;28;20029;-75
2022/03/19 11:00:13;;;;;;;3.92;0.80;;;23.00;42.50;;;;;;5062697;28;20026;-75
2022/03/19 11:02:47;;;;;;;6.47;1.40;;;23.40;41.30;;;;;;5050368;28;20370;-76
2022/03/19 11:05:13;;;;;;;4.15;1.10;;;23.90;38.70;;;;;;5054158;28;20041;-77
2022/03/19 11:07:43;;;;;;;4.95;0.80;;;24.30;38.40;;;;;;5054090;28;20025;-77
2022/03/19 11:10:10;;;;;;;3.45;0.85;;;24.50;38.20;;;;;;5055420;28;20040;-76
2022/03/19 11:12:40;;;;;;;3.30;0.95;;;24.40;37.90;;;;;;5054809;28;20027;-75
2022/03/19 11:15:09;;;;;;;4.13;0.85;;;24.30;37.20;;;;;;5053820;28;20025;-78
2022/03/19 11:17:39;;;;;;;4.32;0.90;;;24.10;36.20;;;;;;5054094;28;20049;-76
2022/03/19 11:20:09;;;;;;;4.43;1.20;;;23.90;35.70;;;;;;5051670;28;20013;-76
2022/03/19 11:22:51;;;;;;;3.40;0.80;;;23.70;35.50;;;;;;5062590;28;20447;-76
2022/03/19 11:25:41;;;;;;;3.40;1.00;;;23.50;34.80;;;;;;5055020;28;20568;-76
2022/03/19 11:28:09;;;;;;;7.07;1.10;;;23.20;34.80;;;;;;5053246;28;20025;-76
2022/03/19 11:30:38;;;;;;;4.80;0.90;;;23.10;35.10;;;;;;5034915;28;20384;-76
2022/03/19 11:33:15;;;;;;;3.72;0.82;;;23.10;34.60;;;;;;5035333;28;20025;-76
2022/03/19 11:35:43;;;;;;;3.65;0.60;;;23.00;34.10;;;;;;5033778;28;20033;-77
2022/03/19 11:38:13;;;;;;;4.60;0.70;;;22.90;33.90;;;;;;5033944;28;20025;-76
2022/03/19 11:40:53;;;;;;;5.00;0.82;;;22.90;34.50;;;;;;5033719;28;20025;-76
2022/03/19 11:43:25;;;;;;;5.60;0.80;;;22.90;33.40;;;;;;5034999;28;20536;-76
2022/03/19 11:46:05;;;;;;;6.05;0.60;;;23.00;33.20;;;;;;5035556;28;20036;-76
2022/03/19 11:48:51;;;;;;;2.42;0.63;;;23.10;32.80;;;;;;5042079;28;20017;-77
2022/03/19 11:51:28;;;;;;;3.58;0.63;;;23.10;32.80;;;;;;5041512;28;20025;-76
2022/03/19 11:54:01;;;;;;;3.15;0.60;;;23.10;32.80;;;;;;5033404;28;20109;-76
2022/03/19 11:56:40;;;;;;;3.15;0.70;;;23.10;32.70;;;;;;5033282;28;20022;-75
2022/03/19 11:59:12;;;;;;;2.47;0.60;;;23.20;32.60;;;;;;5033286;28;20030;-77
2022/03/19 12:01:59;;;;;;;1.98;0.50;;;23.30;32.20;;;;;;5034583;28;20029;-76
2022/03/19 12:04:39;;;;;;;2.63;0.47;;;23.40;31.70;;;;;;5032536;28;20140;-76
2022/03/19 12:07:05;;;;;;;2.55;0.50;;;23.40;32.00;;;;;;5034275;28;20048;-76
2022/03/19 12:09:53;;;;;;;5.13;0.73;;;23.50;32.30;;;;;;5016562;28;20437;-78
2022/03/19 12:12:26;;;;;;;3.70;0.70;;;23.60;31.70;;;;;;5034386;28;20026;-78
2022/03/19 12:14:52;;;;;;;3.00;0.60;;;23.80;32.00;;;;;;5034203;28;20031;-79
2022/03/19 12:17:20;;;;;;;2.00;0.50;;;23.90;31.90;;;;;;5016398;28;20049;-79
2022/03/19 12:20:01;;;;;;;3.20;0.70;;;23.90;31.60;;;;;;5032908;28;20508;-78
2022/03/19 12:22:38;;;;;;;6.15;0.80;;;24.00;31.50;;;;;;5034007;28;20052;-78
2022/03/19 12:25:06;;;;;;;2.67;0.60;;;24.10;30.80;;;;;;5034182;28;20074;-79
2022/03/19 12:27:32;;;;;;;3.60;0.60;;;24.10;30.30;;;;;;5034404;28;20056;-78
2022/03/19 12:29:58;;;;;;;3.38;0.40;;;24.10;30.10;;;;;;5016241;28;20470;-78
2022/03/19 12:32:24;;;;;;;3.45;0.68;;;24.10;30.20;;;;;;5032893;28;20025;-78
2022/03/19 12:35:00;;;;;;;6.35;0.70;;;24.20;30.80;;;;;;5033658;28;20091;-78
2022/03/19 12:37:26;;;;;;;3.38;0.60;;;24.40;30.00;;;;;;5033599;28;20076;-79
2022/03/19 12:40:01;;;;;;;5.65;0.70;;;24.50;30.10;;;;;;5033793;28;20025;-78
2022/03/19 12:42:33;;;;;;;3.47;0.70;;;24.70;29.80;;;;;;5033228;28;20074;-78
2022/03/19 12:45:01;;;;;;;4.07;0.60;;;24.80;30.00;;;;;;5043038;28;20385;-78
2022/03/19 12:47:27;;;;;;;4.68;0.80;;;24.80;30.20;;;;;;5048397;28;20116;-78
2022/03/19 12:49:54;;;;;;;4.03;0.70;;;25.00;30.10;;;;;;5034789;28;20116;-78
2022/03/19 12:52:20;;;;;;;4.10;0.80;;;25.20;30.00;;;;;;5040656;28;20442;-79
2022/03/19 12:54:47;;;;;;;3.38;0.70;;;25.40;30.10;;;;;;5032157;28;20028;-79
2022/03/19 12:57:23;;;;;;;3.47;0.80;;;25.50;29.90;;;;;;5039084;28;20033;-79
2022/03/19 12:59:57;;;;;;;2.28;0.60;;;25.60;29.80;;;;;;5047045;28;20409;-78
2022/03/19 13:02:24;;;;;;;3.38;0.70;;;25.70;29.80;;;;;;5033741;28;20429;-80
2022/03/19 13:04:50;;;;;;;2.50;0.60;;;25.90;29.80;;;;;;5041209;28;20052;-79